Downstream station:
SHEF ID: JOPM7 Shoal Creek above Joplin, MO
STATION TYPE:
Regulating: Stage = 10.00, Flow = 6333
PRECIP STAGE RIV-FLOW BAT-LOAD
in ft cfs volt
Ccp-Rev Ccp-Rev Ccp-Rev Ccp-Rev
(US/Central)
04/06 00:00 0.00 3.41 689 12.60
04/06 01:00 0.00 3.39 680 12.54
04/06 02:00 0.00 3.41 689 12.54
04/06 03:00 0.00 3.42 693 12.54
04/06 04:00 0.00 3.44 702 12.54
04/06 05:00 0.00 3.44 702 12.48
04/06 06:00 0.00 3.42 693 12.48
04/06 07:00 0.00 3.40 685 12.42
04/06 08:00 0.00 3.43 697 12.48
04/06 09:00 0.00 3.41 689 12.71
04/06 10:00 0.00 3.43 697 13.24
04/06 11:00 0.00 3.40 685 14.24
04/06 12:00 0.00 3.41 689 13.83
04/06 13:00 0.00 3.41 689 13.77
04/06 14:00 0.00 3.39 680 13.65
04/06 15:00 0.00 3.39 680 13.65
04/06 16:00 0.00 3.38 676 13.59
04/06 17:00 0.00 3.35 664 13.59
04/06 18:00 0.00 3.36 668 13.59
04/06 19:00 0.00 3.38 676 12.65
04/06 20:00 0.00 3.37 672 12.60
04/06 21:00 0.00 3.33 655 12.60
04/06 22:00 0.00 3.36 668 12.54
04/06 23:00 0.00 3.41 689 12.60